Latest Weather Observations for Normanton

IDQ60801

Issued at 10:32 pm EST Sunday 19 April 2015 (issued every 30 minutes, with the page automatically refreshed every 10 minutes)

About weather observations | Map of weather stations | Latest weather observations for QLD | Other Formats
Station Details ID: 029063 Name: NORMANTON AIRPORT Lat: -17.69 Lon: 141.07 Height: 18.42 m
Data from the previous 72 hours. | See also: Recent months at Normanton
Date/Time
EST
Temp
°C
App
Temp
°C
Dew
Point
Rel
Hum
%
Delta-T
°C
Wind Press
QNH
hPa
Press
MSL
hPa
Rain
since 9 am
mm
Dir
 
Spd
km/h
Gust
km/h
Spd
kts
Gust
kts
19/10:30pm 30.1 26.4 15.0 40 9.2 S 28 39 15 21 1013.9 - 0.0
19/10:00pm 31.6 29.9 16.3 39 9.6 S 20 32 11 17 1013.6 - 0.0
19/09:30pm 31.9 29.0 16.2 38 9.8 S 26 35 14 19 1013.4 - 0.0
19/09:00pm 32.2 29.3 16.1 38 10.1 S 26 35 14 19 1013.1 1012.8 0.0
19/08:30pm 32.4 30.5 16.7 39 9.9 S 22 30 12 16 1012.6 - 0.0
19/08:00pm 32.3 32.2 17.0 40 9.7 S 13 15 7 8 1012.2 - 0.0
19/07:30pm 31.9 32.2 17.0 41 9.5 S 11 13 6 7 1011.8 - 0.0
19/07:00pm 32.7 33.0 16.9 38 10.0 S 11 15 6 8 1011.5 - 0.0
19/06:30pm 33.5 33.0 16.8 36 10.6 S 15 19 8 10 1011.3 - 0.0
19/06:00pm 34.5 33.2 16.8 34 11.3 S 19 24 10 13 1011.2 1011.0 0.0
19/05:30pm 34.9 33.0 16.7 34 11.6 S 22 33 12 18 1010.9 - 0.0
19/05:00pm 35.4 34.6 17.1 33 11.8 S 17 28 9 15 1010.8 - 0.0
19/04:30pm 36.0 36.4 18.1 34 11.7 SSE 13 24 7 13 1010.6 - 0.0
19/04:00pm 35.6 35.5 17.8 35 11.6 SSE 15 20 8 11 1010.7 - 0.0
19/03:30pm 34.0 33.6 17.2 36 10.8 SE 15 26 8 14 1010.9 - 0.0
19/03:00pm 35.7 35.4 18.3 35 11.4 SSE 17 26 9 14 1011.1 1011.0 0.0
19/02:30pm 34.9 33.9 17.6 35 11.2 SSE 19 35 10 19 1011.4 - 0.0
19/02:00pm 34.8 35.1 17.9 36 11.0 ESE 13 22 7 12 1011.7 - 0.0
19/01:30pm 34.3 34.1 17.5 36 10.8 SE 15 28 8 15 1012.3 - 0.0
19/01:00pm 33.7 32.2 17.8 38 10.3 SSE 22 37 12 20 1012.8 - 0.0
19/12:30pm 33.0 32.0 17.6 40 9.9 SSE 19 28 10 15 1013.4 - 0.0
19/12:00pm 32.6 31.4 17.6 40 9.6 SSE 20 32 11 17 1014.0 1014.0 0.0
19/11:30am 32.3 30.8 17.7 41 9.4 SSE 22 35 12 19 1014.9 - 0.0
19/11:00am 31.7 28.7 16.8 40 9.4 S 28 37 15 20 1015.4 - 0.0
19/10:30am 31.5 29.6 16.6 40 9.4 SSE 22 32 12 17 1015.7 - 0.0
19/10:00am 30.7 28.6 16.3 42 9.0 SSE 22 33 12 18 1015.9 - 0.0
19/09:30am 29.4 26.3 15.5 43 8.5 SSE 26 39 14 21 1016.1 - 0.0
19/09:00am 29.1 26.4 15.6 44 8.3 SSE 24 37 13 20 1015.9 1015.7 0.0
19/08:30am 28.3 25.1 15.2 44 8.0 SSE 26 41 14 22 1015.7 - 0.0
19/08:00am 28.0 25.2 15.3 46 7.7 SSE 24 37 13 20 1015.5 - 0.0
19/07:30am 27.1 25.5 15.1 47 7.3 SSE 17 20 9 11 1015.1 - 0.0
19/07:00am 27.2 25.0 14.9 47 7.4 SSE 20 28 11 15 1014.5 - 0.0
19/06:30am 27.0 25.1 15.1 48 7.2 S 19 22 10 12 1014.1 - 0.0
19/06:00am 26.5 25.6 15.8 51 6.5 S 15 20 8 11 1013.6 1013.4 0.0
19/05:30am 26.3 26.0 16.5 54 6.1 SSE 13 15 7 8 1013.4 - 0.0
19/05:00am 26.6 26.9 17.1 56 5.9 S 11 15 6 8 1013.1 - 0.0
19/04:30am 26.7 27.7 18.6 61 5.2 S 11 13 6 7 1012.7 - 0.0
19/04:00am 27.0 27.8 19.1 62 5.1 S 13 17 7 9 1012.4 - 0.0
19/03:30am 26.9 25.2 19.0 62 5.1 SSW 26 35 14 19 1012.2 - 0.0
19/03:00am 26.2 28.4 19.1 65 4.6 E 6 7 3 4 1011.5 1011.4 0.0
19/02:30am 26.0 28.0 18.7 64 4.7 E 6 6 3 3 1011.7 - 0.0
19/02:00am 26.1 28.0 18.5 63 4.8 E 6 7 3 4 1012.1 - 0.0
19/01:30am 27.0 28.6 17.8 57 5.8 E 6 7 3 4 1012.4 - 0.0
19/01:00am 27.4 28.8 17.8 55 6.1 E 7 9 4 5 1012.6 - 0.0
19/12:30am 28.1 29.3 17.3 52 6.8 E 7 11 4 6 1012.8 - 0.0
19/12:00am 28.9 29.1 15.8 45 8.1 E 9 13 5 7 1012.8 1012.6 0.0
 
Date/Time
EST
Temp
°C
App
Temp
°C
Dew
Point
Rel
Hum
%
Delta-T
°C
Wind Press
QNH
hPa
Press
MSL
hPa
Rain
since 9 am
mm
Dir
 
Spd
km/h
Gust
km/h
Spd
kts
Gust
kts
18/11:30pm 28.3 28.2 15.9 47 7.6 S 11 13 6 7 1012.4 - 0.0
18/11:00pm 28.8 28.6 15.7 45 8.1 S 11 13 6 7 1012.5 - 0.0
18/10:30pm 29.1 28.9 15.6 44 8.3 S 11 13 6 7 1012.5 - 0.0
18/10:00pm 29.4 29.1 15.5 43 8.5 S 11 13 6 7 1012.4 - 0.0
18/09:30pm 29.8 29.3 15.9 43 8.6 S 13 15 7 8 1012.3 - 0.0
18/09:00pm 29.5 29.5 16.3 45 8.2 S 11 13 6 7 1012.1 1011.8 0.0
18/08:30pm 29.8 29.8 16.2 43 8.5 SSW 11 13 6 7 1012.0 - 0.0
18/08:00pm 30.3 30.3 16.3 42 8.7 S 11 13 6 7 1011.4 - 0.0
18/07:30pm 31.2 31.3 16.4 41 9.3 S 11 13 6 7 1010.9 - 0.0
18/07:00pm 31.3 31.5 15.7 39 9.7 S 9 11 5 6 1010.8 - 0.0
18/06:30pm 33.1 33.1 15.1 33 11.2 S 9 15 5 8 1010.4 - 0.0
18/06:00pm 35.1 34.8 15.4 30 12.4 S 11 17 6 9 1010.2 1010.0 0.0
18/05:30pm 35.7 35.0 15.4 29 12.7 S 13 20 7 11 1010.0 - 0.0
18/05:00pm 36.1 35.2 15.8 30 12.8 S 15 24 8 13 1009.9 - 0.0
18/04:30pm 36.3 34.5 15.4 28 13.1 S 19 24 10 13 1009.8 - 0.0
18/04:00pm 36.3 34.9 16.5 31 12.6 SSE 19 26 10 14 1009.8 - 0.0
18/03:30pm 36.2 36.1 16.9 32 12.4 S 13 19 7 10 1010.0 - 0.0
18/03:00pm 35.3 36.0 16.1 32 12.2 SW 7 20 4 11 1010.3 1010.2 0.0
18/02:30pm 35.8 36.5 17.0 32 12.1 S 9 17 5 9 1010.8 - 0.0
18/02:00pm 34.8 35.3 16.6 33 11.6 SSE 9 20 5 11 1011.3 - 0.0
18/01:30pm 34.1 35.1 16.9 36 11.0 SSE 7 15 4 8 1011.7 - 0.0
18/01:00pm 33.6 34.2 17.7 38 10.2 NE 11 17 6 9 1012.3 - 0.0
18/12:30pm 33.5 34.6 18.0 39 10.0 NNE 9 13 5 7 1013.0 - 0.0
18/12:00pm 33.5 35.2 18.4 40 9.8 SE 7 11 4 6 1013.7 1013.6 0.0
18/11:30am 32.6 33.7 18.0 41 9.4 NNE 9 17 5 9 1014.2 - 0.0
18/11:00am 31.8 32.9 18.0 43 8.9 NE 9 13 5 7 1014.6 - 0.0
18/10:30am 30.8 32.4 18.2 47 8.1 E 7 13 4 7 1015.2 - 0.0
18/10:00am 30.5 31.9 18.6 49 7.7 ENE 9 17 5 9 1015.4 - 0.0
18/09:30am 29.7 31.2 18.8 52 7.0 E 9 17 5 9 1015.4 - 0.0
18/09:00am 28.6 31.0 20.9 63 5.1 E 9 15 5 8 1015.3 1015.0 0.0
18/08:30am 27.6 30.6 21.2 68 4.3 ESE 7 11 4 6 1014.9 - 0.0
18/08:00am 26.3 29.6 21.9 77 2.9 ESE 7 11 4 6 1014.5 - 0.0
18/07:30am 24.9 28.9 22.8 88 1.4 SE 6 9 3 5 1013.9 - 0.0
18/07:00am 24.0 29.3 23.0 94 0.7 CALM 0 0 0 0 1013.6 - 0.0
18/06:30am 23.2 28.6 23.2 100 0.0 CALM 0 0 0 0 1013.1 - 0.0
18/06:00am 23.1 27.7 23.1 100 0.0 ENE 4 6 2 3 1012.8 1012.5 0.0
18/05:30am 23.5 27.8 23.3 99 0.1 ENE 6 7 3 4 1012.2 - 0.0
18/05:00am 23.5 27.6 23.3 99 0.1 ENE 7 9 4 5 1011.7 - 0.0
18/04:30am 23.7 27.8 23.2 97 0.3 ENE 7 9 4 5 1011.6 - 0.0
18/04:00am 23.7 27.9 23.2 97 0.3 E 6 9 3 5 1011.8 - 0.0
18/03:30am 23.7 26.7 23.4 98 0.2 ENE 13 24 7 13 1011.8 - 0.0
18/03:00am 23.7 27.8 23.2 97 0.3 E 7 11 4 6 1011.5 1011.4 0.0
18/02:30am 23.9 28.7 22.9 94 0.7 W 2 6 1 3 1011.3 - 0.0
18/02:00am 24.6 28.2 23.0 91 1.1 WSW 9 11 5 6 1011.4 - 0.0
18/01:30am 24.7 28.2 22.8 89 1.3 WSW 9 11 5 6 1011.6 - 0.0
18/01:00am 25.3 29.3 22.8 86 1.7 W 6 7 3 4 1012.0 - 0.0
18/12:30am 25.8 29.6 22.7 83 2.1 WNW 7 9 4 5 1012.3 - 0.0
18/12:00am 26.2 31.2 22.5 80 2.5 CALM 0 0 0 0 1012.5 1012.4 0.0
 
Date/Time
EST
Temp
°C
App
Temp
°C
Dew
Point
Rel
Hum
%
Delta-T
°C
Wind Press
QNH
hPa
Press
MSL
hPa
Rain
since 9 am
mm
Dir
 
Spd
km/h
Gust
km/h
Spd
kts
Gust
kts
17/11:30pm 26.3 30.1 22.4 79 2.6 WNW 6 7 3 4 1012.7 - 0.0
17/11:00pm 26.9 30.6 22.3 76 3.1 NW 6 7 3 4 1012.9 - 0.0
17/10:30pm 27.0 30.8 22.4 76 3.1 NW 6 9 3 5 1012.9 - 0.0
17/10:00pm 27.4 31.0 22.3 73 3.4 NW 7 9 4 5 1013.0 - 0.0
17/09:30pm 27.4 30.5 22.1 73 3.6 WNW 9 11 5 6 1012.9 - 0.0
17/09:00pm 27.7 30.3 22.0 71 3.8 WNW 11 15 6 8 1012.8 1012.5 0.0
17/08:30pm 28.0 30.2 21.8 69 4.2 WNW 13 15 7 8 1012.4 - 0.0
17/08:00pm 28.5 31.0 21.8 67 4.5 WNW 11 15 6 8 1011.8 - 0.0
17/07:30pm 29.0 30.2 21.5 64 5.0 WNW 17 20 9 11 1011.3 - 0.0
17/07:00pm 29.7 30.7 21.1 60 5.7 NW 17 20 9 11 1011.0 - 0.0
17/06:30pm 30.5 30.9 21.0 57 6.3 NW 20 30 11 16 1010.6 - 0.0
17/06:00pm 33.9 34.7 17.2 37 10.7 ENE 9 13 5 7 1010.1 1009.9 0.0
17/05:30pm 34.4 35.0 16.7 34 11.3 ENE 9 17 5 9 1010.0 - 0.0
17/05:00pm 35.1 35.7 16.9 34 11.6 NE 9 20 5 11 1009.7 - 0.0
17/04:30pm 35.4 35.7 17.1 33 11.8 E 11 20 6 11 1009.7 - 0.0
17/04:00pm 34.7 34.8 16.5 33 11.6 ESE 11 19 6 10 1009.8 - 0.0
17/03:30pm 34.7 33.7 16.5 33 11.6 SE 17 24 9 13 1009.7 - 0.0
17/03:00pm 34.9 34.9 17.2 35 11.4 SE 13 19 7 10 1009.9 1009.8 0.0
17/02:30pm 34.1 34.9 17.3 36 10.8 NNE 9 24 5 13 1010.3 - 0.0
17/02:00pm 34.5 35.3 18.1 37 10.7 NNE 11 19 6 10 1010.8 - 0.0
17/01:30pm 33.8 34.5 17.9 38 10.3 E 11 26 6 14 1011.4 - 0.0
17/01:00pm 33.9 34.6 18.0 39 10.3 ENE 11 20 6 11 1012.0 - 0.0
17/12:30pm 33.1 33.5 18.1 41 9.7 E 13 24 7 13 1012.6 - 0.0
17/12:00pm 32.2 32.5 18.0 42 9.1 ENE 13 24 7 13 1013.3 1013.2 0.0
17/11:30am 31.9 31.8 17.8 43 9.0 E 15 28 8 15 1013.8 - 0.0
17/11:00am 31.0 30.8 18.4 47 8.1 ENE 17 26 9 14 1014.4 - 0.0
17/10:30am 30.9 30.7 18.6 48 8.0 E 17 28 9 15 1014.9 - 0.0
17/10:00am 29.9 30.2 18.7 51 7.2 E 15 24 8 13 1015.3 - 0.0
17/09:30am 29.0 29.5 18.4 52 6.8 E 13 20 7 11 1015.3 - 0.0
17/09:00am 28.1 27.8 18.2 55 6.3 ENE 17 24 9 13 1015.4 1015.2 0.0
17/08:30am 27.4 27.4 18.1 57 5.9 ENE 15 20 8 11 1015.4 - 0.0
17/08:00am 26.5 27.8 18.4 61 5.2 ENE 9 13 5 7 1015.5 - 0.0
17/07:30am 25.3 27.5 19.7 71 3.6 ENE 7 9 4 5 1015.2 - 0.0
17/07:00am 24.0 26.1 19.3 75 3.0 E 7 9 4 5 1014.8 - 0.0
17/06:30am 23.7 26.3 20.0 80 2.4 E 6 9 3 5 1014.5 - 0.0
17/06:00am 24.2 27.1 20.7 81 2.3 E 6 7 3 4 1014.3 1014.0 0.0
17/05:30am 24.3 27.6 21.8 86 1.7 E 7 9 4 5 1014.0 - 0.0
17/05:00am 24.3 28.4 22.9 92 0.9 E 6 9 3 5 1013.9 - 0.0
17/04:30am 24.6 28.8 23.4 93 0.8 ENE 7 11 4 6 1013.7 - 0.0
17/04:00am 24.8 28.7 23.6 93 0.8 NE 9 13 5 7 1013.6 - 0.0
17/03:30am 25.3 29.2 23.0 87 1.6 NNE 7 9 4 5 1013.8 - 0.0
17/03:00am 26.2 28.7 21.8 77 2.9 ENE 11 17 6 9 1013.7 1013.5 0.0
17/02:30am 25.7 29.6 23.0 85 1.8 ENE 7 11 4 6 1013.6 - 0.0
17/02:00am 25.8 30.1 23.7 88 1.4 E 7 9 4 5 1014.0 - 0.0
17/01:30am 25.9 31.5 23.6 87 1.6 CALM 0 0 0 0 1014.3 - 0.0
17/01:00am 26.2 31.5 23.1 83 2.1 CALM 0 0 0 0 1014.6 - 0.0
17/12:30am 26.9 31.3 23.8 83 2.1 S 7 11 4 6 1015.0 - 0.0
17/12:00am 26.8 30.6 23.5 82 2.3 SW 9 11 5 6 1015.0 1014.8 0.0
 
Date/Time
EST
Temp
°C
App
Temp
°C
Dew
Point
Rel
Hum
%
Delta-T
°C
Wind Press
QNH
hPa
Press
MSL
hPa
Rain
since 9 am
mm
Dir
 
Spd
km/h
Gust
km/h
Spd
kts
Gust
kts
16/11:30pm 27.3 31.4 23.3 79 2.7 SW 7 11 4 6 1015.1 - 0.0
16/11:00pm 27.3 31.5 23.1 78 2.9 WNW 6 9 3 5 1015.0 - 0.0

Other Formats:

Comma delimited format used in spreadsheet applications
http://www.bom.gov.au/fwo/IDQ60801/IDQ60801.94266.axf

JavaScript Object Notation format (JSON) in row-major order
http://www.bom.gov.au/fwo/IDQ60801/IDQ60801.94266.json